createdAt,value
2019-05-15T00:01:28.729Z,12.51
2019-05-15T00:03:58.500Z,12.52
2019-05-15T00:06:28.528Z,12.50
2019-05-15T00:08:58.802Z,12.47
2019-05-15T00:11:28.784Z,12.44
2019-05-15T00:13:58.951Z,12.37
2019-05-15T00:16:28.980Z,12.29
2019-05-15T00:18:59.126Z,12.31
2019-05-15T00:21:28.769Z,12.29
2019-05-15T00:23:58.689Z,12.18
2019-05-15T00:26:27.321Z,12.08
2019-05-15T00:29:09.486Z,12.03
2019-05-15T00:31:26.252Z,12.11
2019-05-15T00:33:54.679Z,12.08
2019-05-15T00:36:23.106Z,12.06
2019-05-15T00:38:51.524Z,12.00
2019-05-15T00:41:19.962Z,11.85
2019-05-15T00:43:49.416Z,11.89
2019-05-15T00:46:18.432Z,11.81
2019-05-15T00:48:48.734Z,11.57
2019-05-15T00:51:19.292Z,11.70
2019-05-15T00:53:48.318Z,11.84
2019-05-15T00:56:19.263Z,11.97
2019-05-15T00:58:48.168Z,12.09
2019-05-15T01:01:19.986Z,12.13
2019-05-15T01:03:49.340Z,12.20
2019-05-15T01:06:19.075Z,12.38
2019-05-15T01:08:48.308Z,12.39
2019-05-15T01:11:19.010Z,12.46
2019-05-15T01:13:48.150Z,12.52
2019-05-15T01:16:18.604Z,12.30
2019-05-15T01:18:48.981Z,12.32
2019-05-15T01:21:20.020Z,12.42
2019-05-15T01:23:48.602Z,12.41
2019-05-15T01:26:18.851Z,12.40
2019-05-15T01:28:49.448Z,12.34
2019-05-15T01:31:19.036Z,12.38
2019-05-15T01:33:48.111Z,12.40
2019-05-15T01:36:20.002Z,12.39
2019-05-15T01:38:48.493Z,12.36
2019-05-15T01:41:18.915Z,12.32
2019-05-15T01:43:48.903Z,12.28
2019-05-15T01:46:19.077Z,12.22
2019-05-15T01:48:49.321Z,12.06
2019-05-15T01:51:18.468Z,11.94
2019-05-15T01:53:48.094Z,11.80
2019-05-15T01:56:18.895Z,11.70
2019-05-15T01:58:48.713Z,11.62
2019-05-15T02:01:19.102Z,11.54
2019-05-15T02:03:49.114Z,11.38
2019-05-15T02:06:18.967Z,11.27
2019-05-15T02:08:49.734Z,11.24
2019-05-15T02:11:28.761Z,11.23
2019-05-15T02:13:58.579Z,11.22
2019-05-15T02:16:28.656Z,11.20
2019-05-15T02:18:58.273Z,11.16
2019-05-15T02:21:28.828Z,11.17
2019-05-15T02:23:58.779Z,11.13
2019-05-15T02:26:28.175Z,11.09
2019-05-15T02:28:56.855Z,11.01
2019-05-15T02:31:25.264Z,10.97
2019-05-15T02:33:53.694Z,10.67
2019-05-15T02:36:22.091Z,10.63
2019-05-15T02:38:50.536Z,10.63
2019-05-15T02:41:19.662Z,10.63
2019-05-15T02:43:50.124Z,10.62
2019-05-15T02:46:19.416Z,10.59
2019-05-15T02:48:48.923Z,10.55
2019-05-15T02:51:19.286Z,10.52
2019-05-15T02:53:50.516Z,10.47
2019-05-15T02:56:20.438Z,10.51
2019-05-15T02:58:49.373Z,10.45
2019-05-15T03:01:23.838Z,10.42
2019-05-15T03:03:51.699Z,10.46
2019-05-15T03:06:20.055Z,10.47
2019-05-15T03:08:49.693Z,10.35
2019-05-15T03:11:19.065Z,10.28
2019-05-15T03:13:50.510Z,10.27
2019-05-15T03:16:19.405Z,10.13
2019-05-15T03:18:50.534Z,10.04
2019-05-15T03:21:18.856Z,9.93
2019-05-15T03:23:50.559Z,9.89
2019-05-15T03:26:19.766Z,9.81
2019-05-15T03:28:49.575Z,9.57
2019-05-15T03:31:40.830Z,9.35
2019-05-15T03:33:53.334Z,9.44
2019-05-15T03:36:22.982Z,9.52
2019-05-15T03:38:49.892Z,9.60
2019-05-15T03:41:19.509Z,9.61
2019-05-15T03:43:49.617Z,9.64
2019-05-15T03:46:19.978Z,9.54
2019-05-15T03:48:48.809Z,9.48
2019-05-15T03:51:19.967Z,9.49
2019-05-15T03:53:49.726Z,9.20
2019-05-15T03:56:19.046Z,9.01
2019-05-15T03:58:49.453Z,8.81
2019-05-15T04:01:29.956Z,8.70
2019-05-15T04:03:51.220Z,8.68
2019-05-15T04:06:19.698Z,8.69
2019-05-15T04:08:49.596Z,8.86
2019-05-15T04:11:20.360Z,9.09
2019-05-15T04:13:49.978Z,9.29
2019-05-15T04:16:19.257Z,9.22
2019-05-15T04:18:49.109Z,8.98
2019-05-15T04:21:20.025Z,9.45
2019-05-15T04:23:50.115Z,9.45
2019-05-15T04:26:19.712Z,9.45
2019-05-15T04:28:49.433Z,9.46
2019-05-15T04:31:19.348Z,9.42
2019-05-15T04:33:49.158Z,9.72
2019-05-15T04:36:19.146Z,9.69
2019-05-15T04:38:49.679Z,9.89
2019-05-15T04:41:19.717Z,9.85
2019-05-15T04:43:49.484Z,9.60
2019-05-15T04:46:20.811Z,9.51
2019-05-15T04:48:50.199Z,9.33
2019-05-15T04:51:19.222Z,9.27
2019-05-15T04:53:50.305Z,9.47
2019-05-15T04:56:19.341Z,9.64
2019-05-15T04:58:50.728Z,9.73
2019-05-15T05:01:20.101Z,9.80
2019-05-15T05:03:49.550Z,9.70
2019-05-15T05:06:19.142Z,9.75
2019-05-15T05:08:49.398Z,9.84
2019-05-15T05:11:19.436Z,10.03
2019-05-15T05:13:48.618Z,10.23
2019-05-15T05:16:19.264Z,10.38
2019-05-15T05:18:50.746Z,10.54
2019-05-15T05:21:20.483Z,10.51
2019-05-15T05:23:48.885Z,10.65
2019-05-15T05:26:18.580Z,10.77
2019-05-15T05:28:48.691Z,10.86
2019-05-15T05:31:19.136Z,10.87
2019-05-15T05:33:48.648Z,10.88
2019-05-15T05:36:18.547Z,11.00
2019-05-15T05:38:49.442Z,11.07
2019-05-15T05:41:18.953Z,11.09
2019-05-15T05:43:48.756Z,11.24
2019-05-15T05:46:18.410Z,11.30
2019-05-15T05:48:48.894Z,11.37
2019-05-15T05:51:19.045Z,11.41
2019-05-15T05:53:47.990Z,11.51
2019-05-15T05:56:18.159Z,11.61
2019-05-15T05:58:48.983Z,11.71
2019-05-15T06:01:18.811Z,11.78
2019-05-15T06:03:49.085Z,11.86
2019-05-15T06:06:18.588Z,11.93
2019-05-15T06:08:48.048Z,12.01
2019-05-15T06:11:18.370Z,12.13
2019-05-15T06:13:52.186Z,12.20
2019-05-15T06:16:18.980Z,12.30
2019-05-15T06:18:49.233Z,12.41
2019-05-15T06:21:17.944Z,12.48
2019-05-15T06:23:54.758Z,12.50
2019-05-15T06:26:19.354Z,12.52
2019-05-15T06:28:49.071Z,12.57
2019-05-15T06:31:19.018Z,12.58
2019-05-15T06:33:49.062Z,12.62
2019-05-15T06:36:18.886Z,12.70
2019-05-15T06:38:48.331Z,12.79
2019-05-15T06:41:18.139Z,12.87
2019-05-15T06:43:48.394Z,12.96
2019-05-15T06:46:18.789Z,13.07
2019-05-15T06:48:48.611Z,13.02
2019-05-15T06:51:18.170Z,13.12
2019-05-15T06:53:48.934Z,13.16
2019-05-15T06:56:18.727Z,13.27
2019-05-15T06:58:48.741Z,13.38
2019-05-15T07:01:18.864Z,13.46
2019-05-15T07:03:48.434Z,13.54
2019-05-15T07:06:18.139Z,13.53
2019-05-15T07:08:49.525Z,13.54
2019-05-15T07:11:19.155Z,13.63
2019-05-15T07:13:48.654Z,13.70
2019-05-15T07:16:18.739Z,13.71
2019-05-15T07:18:48.594Z,13.78
2019-05-15T07:21:20.332Z,13.85
2019-05-15T07:23:49.636Z,13.87
2019-05-15T07:26:18.290Z,14.00
2019-05-15T07:28:48.616Z,13.99
2019-05-15T07:31:18.099Z,14.12
2019-05-15T07:33:48.857Z,14.13
2019-05-15T07:36:19.195Z,14.22
2019-05-15T07:38:48.535Z,14.22
2019-05-15T07:41:18.536Z,14.26
2019-05-15T07:43:49.454Z,14.23
2019-05-15T07:46:18.449Z,14.16
2019-05-15T07:48:49.103Z,14.31
2019-05-15T07:51:18.020Z,14.39
2019-05-15T07:53:49.017Z,14.31
2019-05-15T07:56:18.159Z,14.60
2019-05-15T07:58:52.107Z,14.61
2019-05-15T08:01:18.560Z,14.47
2019-05-15T08:03:56.464Z,14.66
2019-05-15T08:06:17.994Z,14.64
2019-05-15T08:08:48.649Z,14.52
2019-05-15T08:11:21.812Z,14.66
2019-05-15T08:13:48.667Z,14.55
2019-05-15T08:16:18.102Z,14.56
2019-05-15T08:18:48.363Z,14.85
2019-05-15T08:21:18.522Z,14.90
2019-05-15T08:23:48.514Z,15.02
2019-05-15T08:26:17.847Z,15.07
2019-05-15T08:28:48.524Z,15.12
2019-05-15T08:31:18.375Z,15.16
2019-05-15T08:33:48.235Z,15.36
2019-05-15T08:36:18.371Z,15.50
2019-05-15T08:38:48.670Z,15.46
2019-05-15T08:41:18.517Z,15.59
2019-05-15T08:43:48.681Z,15.76
2019-05-15T08:46:18.628Z,15.90
2019-05-15T08:48:49.174Z,16.00
2019-05-15T08:51:19.272Z,15.96
2019-05-15T08:53:48.812Z,16.06
2019-05-15T08:56:19.493Z,16.10
2019-05-15T08:58:48.634Z,16.13
2019-05-15T09:01:18.098Z,15.97
2019-05-15T09:03:48.973Z,16.22
2019-05-15T09:06:20.668Z,16.27
2019-05-15T09:08:49.091Z,16.33
2019-05-15T09:11:19.219Z,16.39
2019-05-15T09:13:52.827Z,16.54
2019-05-15T09:16:18.504Z,16.67
2019-05-15T09:18:48.549Z,16.79
2019-05-15T09:21:19.171Z,16.78
2019-05-15T09:23:49.792Z,16.68
2019-05-15T09:26:19.508Z,16.88
2019-05-15T09:28:51.015Z,16.85
2019-05-15T09:31:19.579Z,16.69
2019-05-15T09:33:49.249Z,16.58
2019-05-15T09:36:20.190Z,16.91
2019-05-15T09:38:49.105Z,17.09
2019-05-15T09:41:18.023Z,17.21
2019-05-15T09:43:48.497Z,17.46
2019-05-15T09:46:18.484Z,17.53
2019-05-15T09:48:51.202Z,17.50
2019-05-15T09:51:18.302Z,17.62
2019-05-15T09:53:48.435Z,17.61
2019-05-15T09:56:18.648Z,17.79
2019-05-15T09:58:48.846Z,17.63
2019-05-15T10:01:19.686Z,17.59
2019-05-15T10:03:48.422Z,17.75
2019-05-15T10:06:20.084Z,18.07
2019-05-15T10:08:48.977Z,18.41
2019-05-15T10:11:19.687Z,18.37
2019-05-15T10:14:04.028Z,18.68
2019-05-15T10:16:32.463Z,18.55
2019-05-15T10:19:00.881Z,18.48
2019-05-15T10:21:32.437Z,18.27
2019-05-15T10:23:59.652Z,18.72
2019-05-15T10:26:28.561Z,18.73
2019-05-15T10:28:58.417Z,18.48
2019-05-15T10:31:28.285Z,18.67
2019-05-15T10:33:58.266Z,19.02
2019-05-15T10:36:28.035Z,19.07
2019-05-15T10:38:59.034Z,19.32
2019-05-15T10:41:28.129Z,19.17
2019-05-15T10:43:59.594Z,19.35
2019-05-15T10:46:28.467Z,19.73
2019-05-15T10:48:58.619Z,20.18
2019-05-15T10:51:28.587Z,20.83
2019-05-15T10:53:57.226Z,21.18
2019-05-15T10:56:25.631Z,22.56
2019-05-15T10:58:54.052Z,23.19
2019-05-15T11:01:22.460Z,23.07
2019-05-15T11:03:50.894Z,23.62
2019-05-15T11:06:19.305Z,24.25
2019-05-15T11:08:50.922Z,23.95
2019-05-15T11:11:18.400Z,23.48
2019-05-15T11:13:46.976Z,24.45
2019-05-15T11:16:15.393Z,25.61
2019-05-15T11:18:43.871Z,24.60
2019-05-15T11:21:12.294Z,23.65
2019-05-15T11:23:42.622Z,24.24
2019-05-15T11:26:10.855Z,24.29
2019-05-15T11:28:39.519Z,24.69
2019-05-15T11:31:10.313Z,24.63
2019-05-15T11:33:38.637Z,24.46
2019-05-15T11:36:07.044Z,24.87
2019-05-15T11:38:37.955Z,25.52
2019-05-15T11:41:05.809Z,24.49
2019-05-15T11:43:34.201Z,24.91
2019-05-15T11:46:02.687Z,24.71
2019-05-15T11:48:31.171Z,24.73
2019-05-15T11:50:59.600Z,23.90
2019-05-15T11:53:28.562Z,24.11
2019-05-15T11:55:59.625Z,23.31
2019-05-15T11:58:28.215Z,24.17
2019-05-15T12:00:57.970Z,24.63
2019-05-15T12:03:28.870Z,24.29
2019-05-15T12:05:59.645Z,24.39
2019-05-15T12:08:29.414Z,23.70
2019-05-15T12:10:59.206Z,23.69
2019-05-15T12:13:27.991Z,24.25
2019-05-15T12:15:58.749Z,24.53
2019-05-15T12:18:28.528Z,24.89
2019-05-15T12:20:59.585Z,24.69
2019-05-15T12:23:29.181Z,24.59
2019-05-15T12:25:59.800Z,24.60
2019-05-15T12:28:29.615Z,24.93
2019-05-15T12:30:59.670Z,24.61
2019-05-15T12:33:29.073Z,24.63
2019-05-15T12:35:57.806Z,24.71
2019-05-15T12:38:28.892Z,23.55
2019-05-15T13:00:58.003Z,24.37
2019-05-15T13:03:28.733Z,24.60
2019-05-15T13:05:56.741Z,23.97
2019-05-15T13:08:25.166Z,24.28
2019-05-15T13:10:53.601Z,24.16
2019-05-15T13:13:22.052Z,23.71
2019-05-15T13:15:50.490Z,23.12
2019-05-15T13:18:19.073Z,23.58
2019-05-15T13:20:49.210Z,23.96
2019-05-15T13:23:17.921Z,24.10
2019-05-15T13:25:48.402Z,24.52
2019-05-15T13:28:18.477Z,24.61
2019-05-15T13:30:49.014Z,24.44
2019-05-15T13:33:16.801Z,24.64
2019-05-15T13:35:45.717Z,24.32
2019-05-15T13:38:14.159Z,24.35
2019-05-15T13:40:42.812Z,24.42
2019-05-15T13:43:11.222Z,25.16
2019-05-15T13:45:39.644Z,25.12
2019-05-15T13:48:08.798Z,25.14
2019-05-15T13:50:40.460Z,25.08
2019-05-15T13:53:10.467Z,24.11
2019-05-15T13:55:42.584Z,24.70
2019-05-15T13:58:08.870Z,24.39
2019-05-15T14:00:39.149Z,24.71
2019-05-15T14:03:09.169Z,24.79
2019-05-15T14:05:38.486Z,24.64
2019-05-15T14:08:07.254Z,24.76
2019-05-15T14:10:38.334Z,24.19
2019-05-15T14:13:06.020Z,24.44
2019-05-15T14:15:34.564Z,24.62
2019-05-15T14:18:03.112Z,24.71
2019-05-15T14:20:31.566Z,24.38
2019-05-15T14:23:00.280Z,24.11
2019-05-15T14:25:28.814Z,24.51
2019-05-15T14:27:59.368Z,24.29
2019-05-15T14:30:29.353Z,24.00
2019-05-15T14:32:59.663Z,24.11
2019-05-15T14:35:27.741Z,24.16
2019-05-15T14:38:03.617Z,24.10
2019-05-15T14:40:26.466Z,24.14
2019-05-15T14:42:54.922Z,24.19
2019-05-15T14:45:23.359Z,24.37
2019-05-15T14:47:51.766Z,23.56
2019-05-15T14:50:20.326Z,23.62
2019-05-15T14:52:48.774Z,23.70
2019-05-15T14:55:19.899Z,23.83
2019-05-15T14:57:48.879Z,23.92
2019-05-15T15:00:20.309Z,24.12
2019-05-15T15:02:49.598Z,24.12
2019-05-15T15:05:21.551Z,24.00
2019-05-15T15:07:49.197Z,23.84
2019-05-15T15:10:20.114Z,23.89
2019-05-15T15:12:50.006Z,24.24
2019-05-15T15:15:19.674Z,24.30
2019-05-15T15:17:49.250Z,24.33
2019-05-15T15:20:18.024Z,23.53
2019-05-15T15:22:48.519Z,23.71
2019-05-15T15:25:16.752Z,23.78
2019-05-15T15:27:45.168Z,23.81
2019-05-15T15:30:15.805Z,23.69
2019-05-15T15:32:43.970Z,23.64
2019-05-15T15:35:12.637Z,23.66
2019-05-15T15:37:41.180Z,23.89
2019-05-15T15:40:09.854Z,23.66
2019-05-15T15:42:39.531Z,23.63
2019-05-15T15:45:09.546Z,23.33
2019-05-15T15:47:38.950Z,23.40
2019-05-15T15:50:09.416Z,23.06
2019-05-15T15:52:38.817Z,23.12
2019-05-15T15:55:08.852Z,23.51
2019-05-15T15:57:39.646Z,22.84
2019-05-15T16:00:09.615Z,22.98
2019-05-15T16:02:40.984Z,22.79
2019-05-15T16:05:09.744Z,22.74
2019-05-15T16:07:38.553Z,22.84
2019-05-15T16:10:08.489Z,23.12
2019-05-15T16:12:38.717Z,23.42
2019-05-15T16:15:09.012Z,23.26
2019-05-15T16:17:38.401Z,23.48
2019-05-15T16:20:08.369Z,23.22
2019-05-15T16:22:38.185Z,23.11
2019-05-15T16:25:09.567Z,23.40
2019-05-15T16:27:38.661Z,23.64
2019-05-15T16:30:09.009Z,23.19
2019-05-15T16:32:38.924Z,23.47
2019-05-15T16:35:09.270Z,23.18
2019-05-15T16:37:40.453Z,22.69
2019-05-15T16:40:08.949Z,22.91
2019-05-15T16:42:38.439Z,22.49
2019-05-15T16:45:09.795Z,22.91
2019-05-15T16:47:38.917Z,22.96
2019-05-15T16:50:09.135Z,22.57
2019-05-15T16:52:38.819Z,22.54
2019-05-15T16:55:09.473Z,22.43
2019-05-15T16:57:38.694Z,22.39
2019-05-15T17:00:09.703Z,22.28
2019-05-15T17:02:41.705Z,21.79
2019-05-15T17:05:10.559Z,21.59
2019-05-15T17:07:42.803Z,21.28
2019-05-15T17:10:11.642Z,21.68
2019-05-15T17:12:40.097Z,21.54
2019-05-15T17:15:10.350Z,21.49
2019-05-15T17:17:40.732Z,21.73
2019-05-15T17:20:10.334Z,21.42
2019-05-15T17:22:39.400Z,21.21
2019-05-15T17:25:09.425Z,21.21
2019-05-15T17:27:38.085Z,21.12
2019-05-15T17:30:09.333Z,21.14
2019-05-15T17:32:39.874Z,20.99
2019-05-15T17:35:10.108Z,20.94
2019-05-15T17:37:41.612Z,20.82
2019-05-15T17:40:10.977Z,20.97
2019-05-15T17:42:39.458Z,20.86
2019-05-15T17:45:09.228Z,20.99
2019-05-15T17:47:38.786Z,20.76
2019-05-15T17:50:08.824Z,20.56
2019-05-15T17:52:38.676Z,20.87
2019-05-15T17:55:07.822Z,20.77
2019-05-15T17:57:38.782Z,20.48
2019-05-15T18:00:12.089Z,19.99
2019-05-15T18:02:39.710Z,20.05
2019-05-15T18:05:11.186Z,20.07
2019-05-15T18:07:39.631Z,20.28
2019-05-15T18:10:08.897Z,20.24
2019-05-15T18:12:38.781Z,20.15
2019-05-15T18:15:08.981Z,20.20
2019-05-15T18:17:39.156Z,20.28
2019-05-15T18:20:10.364Z,20.24
2019-05-15T18:22:42.238Z,20.38
2019-05-15T18:25:11.085Z,20.35
2019-05-15T18:27:41.044Z,20.28
2019-05-15T18:30:09.923Z,20.20
2019-05-15T18:32:39.104Z,19.78
2019-05-15T18:35:08.468Z,19.92
2019-05-15T18:37:39.325Z,19.90
2019-05-15T18:40:09.762Z,19.82
2019-05-15T18:42:39.331Z,19.85
2019-05-15T18:45:09.935Z,19.68
2019-05-15T18:47:40.374Z,19.82
2019-05-15T18:50:13.420Z,19.53
2019-05-15T18:52:44.206Z,19.67
2019-05-15T18:55:14.363Z,19.59
2019-05-15T18:57:42.804Z,19.53
2019-05-15T19:00:12.940Z,19.35
2019-05-15T19:02:41.333Z,19.41
2019-05-15T19:05:10.008Z,19.36
2019-05-15T19:07:38.625Z,19.21
2019-05-15T19:10:08.421Z,19.13
2019-05-15T19:12:37.880Z,18.93
2019-05-15T19:15:09.994Z,19.00
2019-05-15T19:17:39.333Z,18.92
2019-05-15T19:20:09.106Z,18.92
2019-05-15T19:22:41.426Z,18.80
2019-05-15T19:25:13.598Z,18.77
2019-05-15T19:27:48.595Z,18.69
2019-05-15T19:30:19.028Z,18.61
2019-05-15T19:32:49.065Z,18.54
2019-05-15T19:35:18.506Z,18.47
2019-05-15T19:37:49.039Z,18.39
2019-05-15T19:40:18.697Z,18.41
2019-05-15T19:42:48.787Z,18.40
2019-05-15T19:45:17.830Z,18.21
2019-05-15T19:47:47.834Z,18.11
2019-05-15T19:50:18.075Z,18.09
2019-05-15T19:52:48.232Z,18.07
2019-05-15T19:55:17.702Z,17.91
2019-05-15T19:57:49.891Z,17.87
2019-05-15T20:00:18.823Z,17.81
2019-05-15T20:02:48.566Z,17.69
2019-05-15T20:05:18.332Z,17.61
2019-05-15T20:07:47.970Z,17.56
2019-05-15T20:10:18.702Z,17.47
2019-05-15T20:12:47.964Z,17.46
2019-05-15T20:15:18.823Z,17.42
2019-05-15T20:17:47.817Z,17.30
2019-05-15T20:20:18.707Z,17.28
2019-05-15T20:22:47.507Z,17.15
2019-05-15T20:25:18.316Z,17.06
2019-05-15T20:27:48.151Z,17.00
2019-05-15T20:30:18.091Z,16.96
2019-05-15T20:32:47.890Z,16.82
2019-05-15T20:35:16.473Z,16.68
2019-05-15T20:37:45.000Z,16.78
2019-05-15T20:40:14.063Z,16.83
2019-05-15T20:42:42.533Z,16.76
2019-05-15T20:45:12.535Z,16.79
2019-05-15T20:47:44.272Z,16.84
2019-05-15T20:50:13.427Z,16.76
2019-05-15T20:52:41.851Z,16.65
2019-05-15T20:55:10.345Z,16.66
2019-05-15T20:57:40.891Z,16.60
2019-05-15T21:00:11.091Z,16.53
2019-05-15T21:02:39.689Z,16.50
2019-05-15T21:05:08.934Z,16.49
2019-05-15T21:07:42.138Z,16.41
2019-05-15T21:10:08.515Z,16.33
2019-05-15T21:12:41.036Z,16.26
2019-05-15T21:15:09.102Z,16.17
2019-05-15T21:17:39.858Z,16.12
2019-05-15T21:20:09.599Z,16.05
2019-05-15T21:22:40.165Z,16.02
2019-05-15T21:25:10.865Z,15.88
2019-05-15T21:27:42.134Z,15.80
2019-05-15T21:30:10.720Z,15.75
2019-05-15T21:32:39.202Z,15.69
2019-05-15T21:35:09.061Z,15.57
2019-05-15T21:37:39.027Z,15.53
2019-05-15T21:40:08.813Z,15.48
2019-05-15T21:42:41.412Z,15.46
2019-05-15T21:45:14.658Z,15.38
2019-05-15T21:47:40.901Z,15.42
2019-05-15T21:50:09.659Z,15.40
2019-05-15T21:52:39.190Z,15.36
2019-05-15T21:55:09.699Z,15.27
2019-05-15T21:57:40.337Z,15.19
2019-05-15T22:00:18.155Z,15.12
2019-05-15T22:02:49.165Z,15.10
2019-05-15T22:05:19.067Z,15.10
2019-05-15T22:07:47.794Z,15.07
2019-05-15T22:10:19.304Z,15.05
2019-05-15T22:12:48.329Z,15.01
2019-05-15T22:15:18.984Z,15.00
2019-05-15T22:17:49.357Z,15.01
2019-05-15T22:20:17.855Z,14.98
2019-05-15T22:22:50.343Z,14.90
2019-05-15T22:25:18.970Z,14.88
2019-05-15T22:27:48.638Z,14.83
2019-05-15T22:30:25.147Z,14.76
2019-05-15T22:32:53.587Z,14.73
2019-05-15T22:35:22.141Z,14.67
2019-05-15T22:37:50.576Z,14.74
2019-05-15T22:40:20.027Z,14.64
2019-05-15T22:42:48.906Z,14.71
2019-05-15T22:45:18.608Z,14.77
2019-05-15T22:47:48.226Z,14.69
2019-05-15T22:50:18.763Z,14.60
2019-05-15T22:52:49.375Z,14.66
2019-05-15T22:55:18.340Z,14.62
2019-05-15T22:57:48.073Z,14.61
2019-05-15T23:00:18.318Z,14.56
2019-05-15T23:02:48.779Z,14.57
2019-05-15T23:05:25.022Z,14.60
2019-05-15T23:07:48.254Z,14.54
2019-05-15T23:10:16.968Z,14.44
2019-05-15T23:12:45.397Z,14.44
2019-05-15T23:15:14.452Z,14.44
2019-05-15T23:17:42.887Z,14.46
2019-05-15T23:20:12.060Z,14.42
2019-05-15T23:22:40.491Z,14.35
2019-05-15T23:25:09.290Z,14.24
2019-05-15T23:27:38.342Z,13.97
2019-05-15T23:30:09.053Z,13.93
2019-05-15T23:32:39.149Z,13.92
2019-05-15T23:35:08.227Z,13.81
2019-05-15T23:37:39.174Z,13.70
2019-05-15T23:40:08.903Z,13.70
2019-05-15T23:42:38.917Z,13.63
2019-05-15T23:45:08.227Z,13.57
2019-05-15T23:47:38.393Z,13.55
2019-05-15T23:50:08.416Z,13.46
2019-05-15T23:52:38.548Z,13.50
2019-05-15T23:55:08.508Z,13.54
2019-05-15T23:57:39.244Z,13.52
